sensor_id;sensor_type;location;lat;lon;timestamp;P1;durP1;ratioP1;P2;durP2;ratioP2
79638;SDS011;69114;49.108;8.280;2023-04-24T00:02:09;5.37;;;2.00;;
79638;SDS011;69114;49.108;8.280;2023-04-24T00:04:36;3.13;;;1.90;;
79638;SDS011;69114;49.108;8.280;2023-04-24T00:07:05;5.90;;;2.20;;
79638;SDS011;69114;49.108;8.280;2023-04-24T00:09:31;4.57;;;2.10;;
79638;SDS011;69114;49.108;8.280;2023-04-24T00:11:57;3.17;;;1.80;;
79638;SDS011;69114;49.108;8.280;2023-04-24T00:14:22;4.60;;;2.00;;
79638;SDS011;69114;49.108;8.280;2023-04-24T00:16:48;3.50;;;2.05;;
79638;SDS011;69114;49.108;8.280;2023-04-24T00:19:13;4.63;;;1.95;;
79638;SDS011;69114;49.108;8.280;2023-04-24T00:21:39;3.42;;;2.05;;
79638;SDS011;69114;49.108;8.280;2023-04-24T00:24:06;3.70;;;1.83;;
79638;SDS011;69114;49.108;8.280;2023-04-24T00:26:31;3.30;;;1.67;;
79638;SDS011;69114;49.108;8.280;2023-04-24T00:28:56;2.30;;;1.75;;
79638;SDS011;69114;49.108;8.280;2023-04-24T00:31:22;3.37;;;1.77;;
79638;SDS011;69114;49.108;8.280;2023-04-24T00:33:47;3.08;;;1.95;;
79638;SDS011;69114;49.108;8.280;2023-04-24T00:36:12;4.55;;;1.70;;
79638;SDS011;69114;49.108;8.280;2023-04-24T00:38:38;3.03;;;1.65;;
79638;SDS011;69114;49.108;8.280;2023-04-24T00:41:03;7.22;;;2.53;;
79638;SDS011;69114;49.108;8.280;2023-04-24T00:43:29;3.03;;;1.70;;
79638;SDS011;69114;49.108;8.280;2023-04-24T00:45:54;3.17;;;2.05;;
79638;SDS011;69114;49.108;8.280;2023-04-24T00:48:20;3.55;;;2.10;;
79638;SDS011;69114;49.108;8.280;2023-04-24T00:50:46;3.85;;;2.22;;
79638;SDS011;69114;49.108;8.280;2023-04-24T00:53:11;3.45;;;1.90;;
79638;SDS011;69114;49.108;8.280;2023-04-24T00:55:37;5.65;;;2.10;;
79638;SDS011;69114;49.108;8.280;2023-04-24T00:58:02;3.75;;;2.00;;
79638;SDS011;69114;49.108;8.280;2023-04-24T01:00:28;2.92;;;2.15;;
79638;SDS011;69114;49.108;8.280;2023-04-24T01:02:53;3.47;;;1.85;;
79638;SDS011;69114;49.108;8.280;2023-04-24T01:05:20;2.75;;;1.85;;
79638;SDS011;69114;49.108;8.280;2023-04-24T01:07:46;3.05;;;1.85;;
79638;SDS011;69114;49.108;8.280;2023-04-24T01:10:14;2.75;;;1.90;;
79638;SDS011;69114;49.108;8.280;2023-04-24T01:12:40;2.30;;;1.67;;
79638;SDS011;69114;49.108;8.280;2023-04-24T01:15:06;3.58;;;1.92;;
79638;SDS011;69114;49.108;8.280;2023-04-24T01:17:32;6.75;;;1.90;;
79638;SDS011;69114;49.108;8.280;2023-04-24T01:19:58;3.38;;;1.90;;
79638;SDS011;69114;49.108;8.280;2023-04-24T01:22:25;2.22;;;1.60;;
79638;SDS011;69114;49.108;8.280;2023-04-24T01:24:51;3.35;;;1.60;;
79638;SDS011;69114;49.108;8.280;2023-04-24T01:27:17;4.03;;;1.88;;
79638;SDS011;69114;49.108;8.280;2023-04-24T01:29:42;3.13;;;1.75;;
79638;SDS011;69114;49.108;8.280;2023-04-24T01:32:07;2.72;;;2.38;;
79638;SDS011;69114;49.108;8.280;2023-04-24T01:34:33;4.60;;;2.28;;
79638;SDS011;69114;49.108;8.280;2023-04-24T01:36:59;4.43;;;1.90;;
79638;SDS011;69114;49.108;8.280;2023-04-24T01:39:25;4.18;;;1.98;;
79638;SDS011;69114;49.108;8.280;2023-04-24T01:41:53;2.85;;;1.92;;
79638;SDS011;69114;49.108;8.280;2023-04-24T01:44:19;3.88;;;2.10;;
79638;SDS011;69114;49.108;8.280;2023-04-24T01:46:44;3.65;;;1.95;;
79638;SDS011;69114;49.108;8.280;2023-04-24T01:49:10;3.13;;;1.73;;
79638;SDS011;69114;49.108;8.280;2023-04-24T01:51:35;4.35;;;2.30;;
79638;SDS011;69114;49.108;8.280;2023-04-24T01:54:01;4.07;;;2.10;;
79638;SDS011;69114;49.108;8.280;2023-04-24T01:56:28;4.25;;;1.85;;
79638;SDS011;69114;49.108;8.280;2023-04-24T01:58:54;3.25;;;2.00;;
79638;SDS011;69114;49.108;8.280;2023-04-24T02:01:20;3.28;;;2.00;;
79638;SDS011;69114;49.108;8.280;2023-04-24T02:03:46;4.05;;;1.83;;
79638;SDS011;69114;49.108;8.280;2023-04-24T02:06:11;2.70;;;1.80;;
79638;SDS011;69114;49.108;8.280;2023-04-24T02:08:37;2.22;;;1.73;;
79638;SDS011;69114;49.108;8.280;2023-04-24T02:11:02;3.67;;;1.90;;
79638;SDS011;69114;49.108;8.280;2023-04-24T02:13:28;3.30;;;2.10;;
79638;SDS011;69114;49.108;8.280;2023-04-24T02:15:53;2.80;;;1.92;;
79638;SDS011;69114;49.108;8.280;2023-04-24T02:18:18;3.22;;;2.20;;
79638;SDS011;69114;49.108;8.280;2023-04-24T02:20:44;2.70;;;2.00;;
79638;SDS011;69114;49.108;8.280;2023-04-24T02:23:10;3.15;;;2.08;;
79638;SDS011;69114;49.108;8.280;2023-04-24T02:25:35;3.50;;;1.90;;
79638;SDS011;69114;49.108;8.280;2023-04-24T02:28:00;3.47;;;2.07;;
79638;SDS011;69114;49.108;8.280;2023-04-24T02:30:26;4.15;;;2.00;;
79638;SDS011;69114;49.108;8.280;2023-04-24T02:32:51;3.42;;;1.90;;
79638;SDS011;69114;49.108;8.280;2023-04-24T02:35:17;3.42;;;1.75;;
79638;SDS011;69114;49.108;8.280;2023-04-24T02:37:42;2.67;;;1.88;;
79638;SDS011;69114;49.108;8.280;2023-04-24T02:40:08;4.45;;;2.20;;
79638;SDS011;69114;49.108;8.280;2023-04-24T02:42:34;2.67;;;2.03;;
79638;SDS011;69114;49.108;8.280;2023-04-24T02:44:59;3.25;;;1.95;;
79638;SDS011;69114;49.108;8.280;2023-04-24T02:47:25;4.85;;;2.47;;
79638;SDS011;69114;49.108;8.280;2023-04-24T02:49:50;7.15;;;2.80;;
79638;SDS011;69114;49.108;8.280;2023-04-24T02:52:16;6.00;;;2.50;;
79638;SDS011;69114;49.108;8.280;2023-04-24T02:54:41;4.10;;;2.25;;
79638;SDS011;69114;49.108;8.280;2023-04-24T02:57:07;4.72;;;2.80;;
79638;SDS011;69114;49.108;8.280;2023-04-24T02:59:33;4.70;;;2.80;;
79638;SDS011;69114;49.108;8.280;2023-04-24T03:01:58;3.97;;;2.45;;
79638;SDS011;69114;49.108;8.280;2023-04-24T03:04:24;3.83;;;2.85;;
79638;SDS011;69114;49.108;8.280;2023-04-24T03:06:51;3.38;;;2.47;;
79638;SDS011;69114;49.108;8.280;2023-04-24T03:09:18;5.00;;;2.75;;
79638;SDS011;69114;49.108;8.280;2023-04-24T03:11:43;4.05;;;2.90;;
79638;SDS011;69114;49.108;8.280;2023-04-24T03:14:09;5.13;;;3.33;;
79638;SDS011;69114;49.108;8.280;2023-04-24T03:16:34;6.45;;;3.72;;
79638;SDS011;69114;49.108;8.280;2023-04-24T03:18:59;5.07;;;3.25;;
79638;SDS011;69114;49.108;8.280;2023-04-24T03:21:25;4.45;;;2.83;;
79638;SDS011;69114;49.108;8.280;2023-04-24T03:23:51;5.05;;;3.22;;
79638;SDS011;69114;49.108;8.280;2023-04-24T03:26:17;5.63;;;3.75;;
79638;SDS011;69114;49.108;8.280;2023-04-24T03:28:42;5.05;;;3.05;;
79638;SDS011;69114;49.108;8.280;2023-04-24T03:31:07;3.88;;;3.10;;
79638;SDS011;69114;49.108;8.280;2023-04-24T03:33:33;4.32;;;3.40;;
79638;SDS011;69114;49.108;8.280;2023-04-24T03:35:58;3.90;;;3.45;;
79638;SDS011;69114;49.108;8.280;2023-04-24T03:38:23;4.93;;;3.72;;
79638;SDS011;69114;49.108;8.280;2023-04-24T03:40:49;4.75;;;3.88;;
79638;SDS011;69114;49.108;8.280;2023-04-24T03:43:14;7.60;;;4.05;;
79638;SDS011;69114;49.108;8.280;2023-04-24T03:45:40;5.30;;;3.83;;
79638;SDS011;69114;49.108;8.280;2023-04-24T03:48:05;6.85;;;4.65;;
79638;SDS011;69114;49.108;8.280;2023-04-24T03:50:30;6.40;;;4.03;;
79638;SDS011;69114;49.108;8.280;2023-04-24T03:52:56;6.88;;;4.50;;
79638;SDS011;69114;49.108;8.280;2023-04-24T03:55:21;6.60;;;4.40;;
79638;SDS011;69114;49.108;8.280;2023-04-24T03:57:46;6.35;;;4.70;;
79638;SDS011;69114;49.108;8.280;2023-04-24T04:00:12;9.05;;;4.35;;
79638;SDS011;69114;49.108;8.280;2023-04-24T04:02:37;4.32;;;3.38;;
79638;SDS011;69114;49.108;8.280;2023-04-24T04:05:03;7.38;;;4.75;;
79638;SDS011;69114;49.108;8.280;2023-04-24T04:07:28;5.72;;;3.83;;
79638;SDS011;69114;49.108;8.280;2023-04-24T04:09:54;6.13;;;3.65;;
79638;SDS011;69114;49.108;8.280;2023-04-24T04:12:20;10.15;;;4.30;;
79638;SDS011;69114;49.108;8.280;2023-04-24T04:14:45;5.97;;;4.18;;
79638;SDS011;69114;49.108;8.280;2023-04-24T04:17:11;6.60;;;4.38;;
79638;SDS011;69114;49.108;8.280;2023-04-24T04:19:36;9.23;;;5.35;;
79638;SDS011;69114;49.108;8.280;2023-04-24T04:22:02;4.88;;;3.80;;
79638;SDS011;69114;49.108;8.280;2023-04-24T04:24:27;6.32;;;4.40;;
79638;SDS011;69114;49.108;8.280;2023-04-24T04:26:53;5.40;;;3.67;;
79638;SDS011;69114;49.108;8.280;2023-04-24T04:29:21;6.07;;;4.05;;
79638;SDS011;69114;49.108;8.280;2023-04-24T04:31:47;5.53;;;3.92;;
79638;SDS011;69114;49.108;8.280;2023-04-24T04:34:13;5.95;;;3.75;;
79638;SDS011;69114;49.108;8.280;2023-04-24T04:36:39;5.75;;;4.10;;
79638;SDS011;69114;49.108;8.280;2023-04-24T04:39:05;5.55;;;4.03;;
79638;SDS011;69114;49.108;8.280;2023-04-24T04:41:31;6.13;;;4.13;;
79638;SDS011;69114;49.108;8.280;2023-04-24T04:43:57;5.85;;;4.05;;
79638;SDS011;69114;49.108;8.280;2023-04-24T04:46:23;6.45;;;4.85;;
79638;SDS011;69114;49.108;8.280;2023-04-24T04:48:59;6.95;;;4.22;;
79638;SDS011;69114;49.108;8.280;2023-04-24T04:51:24;6.10;;;4.35;;
79638;SDS011;69114;49.108;8.280;2023-04-24T04:53:50;5.60;;;4.07;;
79638;SDS011;69114;49.108;8.280;2023-04-24T04:56:15;5.78;;;4.25;;
79638;SDS011;69114;49.108;8.280;2023-04-24T04:58:40;7.40;;;4.90;;
79638;SDS011;69114;49.108;8.280;2023-04-24T05:01:06;5.67;;;3.87;;
79638;SDS011;69114;49.108;8.280;2023-04-24T05:03:32;6.03;;;4.15;;
79638;SDS011;69114;49.108;8.280;2023-04-24T05:05:57;7.45;;;3.83;;
79638;SDS011;69114;49.108;8.280;2023-04-24T05:08:23;5.40;;;4.20;;
79638;SDS011;69114;49.108;8.280;2023-04-24T05:10:48;7.07;;;3.93;;
79638;SDS011;69114;49.108;8.280;2023-04-24T05:13:13;6.55;;;4.68;;
79638;SDS011;69114;49.108;8.280;2023-04-24T05:15:39;5.63;;;4.18;;
79638;SDS011;69114;49.108;8.280;2023-04-24T05:18:04;7.97;;;5.20;;
79638;SDS011;69114;49.108;8.280;2023-04-24T05:20:30;7.28;;;4.63;;
79638;SDS011;69114;49.108;8.280;2023-04-24T05:22:55;5.60;;;3.67;;
79638;SDS011;69114;49.108;8.280;2023-04-24T05:25:21;5.03;;;4.00;;
79638;SDS011;69114;49.108;8.280;2023-04-24T05:27:46;5.13;;;3.80;;
79638;SDS011;69114;49.108;8.280;2023-04-24T05:30:11;5.43;;;3.88;;
79638;SDS011;69114;49.108;8.280;2023-04-24T05:32:37;6.25;;;4.13;;
79638;SDS011;69114;49.108;8.280;2023-04-24T05:35:03;6.13;;;4.00;;
79638;SDS011;69114;49.108;8.280;2023-04-24T05:37:28;5.40;;;3.95;;
79638;SDS011;69114;49.108;8.280;2023-04-24T05:39:54;6.60;;;4.65;;
79638;SDS011;69114;49.108;8.280;2023-04-24T05:42:19;6.63;;;5.43;;
79638;SDS011;69114;49.108;8.280;2023-04-24T05:44:45;6.18;;;4.28;;
79638;SDS011;69114;49.108;8.280;2023-04-24T05:47:10;7.72;;;4.43;;
79638;SDS011;69114;49.108;8.280;2023-04-24T05:49:36;6.55;;;4.78;;
79638;SDS011;69114;49.108;8.280;2023-04-24T05:52:01;5.15;;;4.03;;
79638;SDS011;69114;49.108;8.280;2023-04-24T05:54:29;8.10;;;4.72;;
79638;SDS011;69114;49.108;8.280;2023-04-24T05:56:54;7.05;;;4.88;;
79638;SDS011;69114;49.108;8.280;2023-04-24T05:59:20;8.80;;;4.45;;
79638;SDS011;69114;49.108;8.280;2023-04-24T06:01:46;7.15;;;4.43;;
79638;SDS011;69114;49.108;8.280;2023-04-24T06:04:11;7.75;;;4.60;;
79638;SDS011;69114;49.108;8.280;2023-04-24T06:06:46;6.90;;;4.65;;
79638;SDS011;69114;49.108;8.280;2023-04-24T06:09:15;5.55;;;4.15;;
79638;SDS011;69114;49.108;8.280;2023-04-24T06:11:41;5.20;;;3.90;;
79638;SDS011;69114;49.108;8.280;2023-04-24T06:14:07;5.15;;;3.50;;
79638;SDS011;69114;49.108;8.280;2023-04-24T06:16:32;6.78;;;3.58;;
79638;SDS011;69114;49.108;8.280;2023-04-24T06:18:58;5.32;;;3.92;;
79638;SDS011;69114;49.108;8.280;2023-04-24T06:21:23;5.63;;;3.28;;
79638;SDS011;69114;49.108;8.280;2023-04-24T06:23:48;4.88;;;3.78;;
79638;SDS011;69114;49.108;8.280;2023-04-24T06:26:14;4.68;;;3.70;;
79638;SDS011;69114;49.108;8.280;2023-04-24T06:28:40;6.75;;;4.40;;
79638;SDS011;69114;49.108;8.280;2023-04-24T06:31:05;4.27;;;3.30;;
79638;SDS011;69114;49.108;8.280;2023-04-24T06:33:30;5.37;;;3.97;;
79638;SDS011;69114;49.108;8.280;2023-04-24T06:35:56;5.50;;;3.87;;
79638;SDS011;69114;49.108;8.280;2023-04-24T06:38:21;5.07;;;3.17;;
79638;SDS011;69114;49.108;8.280;2023-04-24T06:40:46;4.20;;;3.28;;
79638;SDS011;69114;49.108;8.280;2023-04-24T06:43:12;5.50;;;3.40;;
79638;SDS011;69114;49.108;8.280;2023-04-24T06:45:38;4.28;;;3.17;;
79638;SDS011;69114;49.108;8.280;2023-04-24T06:48:04;4.65;;;2.83;;
79638;SDS011;69114;49.108;8.280;2023-04-24T06:50:30;5.22;;;3.50;;
79638;SDS011;69114;49.108;8.280;2023-04-24T06:52:55;4.53;;;3.20;;
79638;SDS011;69114;49.108;8.280;2023-04-24T06:55:21;4.82;;;3.10;;
79638;SDS011;69114;49.108;8.280;2023-04-24T06:57:46;3.80;;;2.70;;
79638;SDS011;69114;49.108;8.280;2023-04-24T07:00:12;4.53;;;3.40;;
79638;SDS011;69114;49.108;8.280;2023-04-24T07:02:37;4.50;;;3.28;;
79638;SDS011;69114;49.108;8.280;2023-04-24T07:05:03;3.75;;;2.63;;
79638;SDS011;69114;49.108;8.280;2023-04-24T07:07:29;3.92;;;2.80;;
79638;SDS011;69114;49.108;8.280;2023-04-24T07:09:55;3.83;;;2.70;;
79638;SDS011;69114;49.108;8.280;2023-04-24T07:12:21;3.15;;;2.20;;
79638;SDS011;69114;49.108;8.280;2023-04-24T07:14:47;3.58;;;2.75;;
79638;SDS011;69114;49.108;8.280;2023-04-24T07:17:13;3.33;;;2.20;;
79638;SDS011;69114;49.108;8.280;2023-04-24T07:19:38;3.03;;;2.28;;
79638;SDS011;69114;49.108;8.280;2023-04-24T07:22:03;3.00;;;2.35;;
79638;SDS011;69114;49.108;8.280;2023-04-24T07:24:29;2.97;;;2.40;;
79638;SDS011;69114;49.108;8.280;2023-04-24T07:26:57;3.47;;;1.98;;
79638;SDS011;69114;49.108;8.280;2023-04-24T07:29:22;3.33;;;2.40;;
79638;SDS011;69114;49.108;8.280;2023-04-24T07:31:48;5.18;;;2.80;;
79638;SDS011;69114;49.108;8.280;2023-04-24T07:34:13;3.10;;;2.47;;
79638;SDS011;69114;49.108;8.280;2023-04-24T07:36:38;3.17;;;2.30;;
79638;SDS011;69114;49.108;8.280;2023-04-24T07:39:04;3.83;;;2.53;;
79638;SDS011;69114;49.108;8.280;2023-04-24T07:41:30;4.30;;;2.13;;
79638;SDS011;69114;49.108;8.280;2023-04-24T07:43:56;2.80;;;1.85;;
79638;SDS011;69114;49.108;8.280;2023-04-24T07:46:21;3.35;;;2.15;;
79638;SDS011;69114;49.108;8.280;2023-04-24T07:48:48;3.28;;;2.15;;
79638;SDS011;69114;49.108;8.280;2023-04-24T07:51:14;2.45;;;1.70;;
79638;SDS011;69114;49.108;8.280;2023-04-24T07:53:40;4.43;;;1.85;;
79638;SDS011;69114;49.108;8.280;2023-04-24T07:56:05;2.83;;;1.90;;
79638;SDS011;69114;49.108;8.280;2023-04-24T07:58:31;5.68;;;2.75;;
79638;SDS011;69114;49.108;8.280;2023-04-24T08:00:56;3.33;;;2.20;;
79638;SDS011;69114;49.108;8.280;2023-04-24T08:03:22;2.72;;;2.00;;
79638;SDS011;69114;49.108;8.280;2023-04-24T08:05:47;2.40;;;1.90;;
79638;SDS011;69114;49.108;8.280;2023-04-24T08:08:12;3.13;;;1.88;;
79638;SDS011;69114;49.108;8.280;2023-04-24T08:10:38;2.47;;;1.73;;
79638;SDS011;69114;49.108;8.280;2023-04-24T08:13:03;3.88;;;1.90;;
79638;SDS011;69114;49.108;8.280;2023-04-24T08:15:29;4.67;;;2.37;;
79638;SDS011;69114;49.108;8.280;2023-04-24T08:17:54;4.20;;;1.90;;
79638;SDS011;69114;49.108;8.280;2023-04-24T08:20:19;2.83;;;2.08;;
79638;SDS011;69114;49.108;8.280;2023-04-24T08:22:45;2.78;;;2.03;;
79638;SDS011;69114;49.108;8.280;2023-04-24T08:25:12;3.60;;;1.75;;
79638;SDS011;69114;49.108;8.280;2023-04-24T08:27:37;3.92;;;2.05;;
79638;SDS011;69114;49.108;8.280;2023-04-24T08:30:04;2.80;;;1.70;;
79638;SDS011;69114;49.108;8.280;2023-04-24T08:32:30;2.90;;;1.90;;
79638;SDS011;69114;49.108;8.280;2023-04-24T08:34:56;3.08;;;1.67;;
79638;SDS011;69114;49.108;8.280;2023-04-24T08:37:22;3.17;;;1.88;;
79638;SDS011;69114;49.108;8.280;2023-04-24T08:39:48;3.28;;;1.80;;
79638;SDS011;69114;49.108;8.280;2023-04-24T08:42:14;2.30;;;1.70;;
79638;SDS011;69114;49.108;8.280;2023-04-24T08:44:41;2.20;;;1.85;;
79638;SDS011;69114;49.108;8.280;2023-04-24T08:47:07;4.55;;;1.88;;
79638;SDS011;69114;49.108;8.280;2023-04-24T08:49:33;3.15;;;1.83;;
79638;SDS011;69114;49.108;8.280;2023-04-24T08:52:01;4.35;;;2.30;;
79638;SDS011;69114;49.108;8.280;2023-04-24T08:54:28;3.33;;;2.20;;
79638;SDS011;69114;49.108;8.280;2023-04-24T08:56:54;3.30;;;2.17;;
79638;SDS011;69114;49.108;8.280;2023-04-24T08:59:27;4.47;;;2.30;;
79638;SDS011;69114;49.108;8.280;2023-04-24T09:01:52;4.22;;;2.60;;
79638;SDS011;69114;49.108;8.280;2023-04-24T09:04:20;3.20;;;2.13;;
79638;SDS011;69114;49.108;8.280;2023-04-24T09:06:47;3.15;;;2.10;;
79638;SDS011;69114;49.108;8.280;2023-04-24T09:09:14;3.63;;;2.08;;
79638;SDS011;69114;49.108;8.280;2023-04-24T09:11:41;3.25;;;2.28;;
79638;SDS011;69114;49.108;8.280;2023-04-24T09:14:07;3.97;;;2.30;;
79638;SDS011;69114;49.108;8.280;2023-04-24T09:16:34;4.50;;;2.15;;
79638;SDS011;69114;49.108;8.280;2023-04-24T09:19:00;3.65;;;2.95;;
79638;SDS011;69114;49.108;8.280;2023-04-24T09:21:27;3.63;;;2.30;;
79638;SDS011;69114;49.108;8.280;2023-04-24T09:24:01;3.80;;;2.60;;
79638;SDS011;69114;49.108;8.280;2023-04-24T09:26:29;3.75;;;2.72;;
79638;SDS011;69114;49.108;8.280;2023-04-24T09:28:56;3.70;;;2.38;;
79638;SDS011;69114;49.108;8.280;2023-04-24T09:31:22;3.78;;;2.58;;
79638;SDS011;69114;49.108;8.280;2023-04-24T09:33:54;3.65;;;2.33;;
79638;SDS011;69114;49.108;8.280;2023-04-24T09:36:28;3.47;;;2.28;;
79638;SDS011;69114;49.108;8.280;2023-04-24T09:39:00;4.32;;;2.60;;
79638;SDS011;69114;49.108;8.280;2023-04-24T09:41:26;3.40;;;2.60;;
79638;SDS011;69114;49.108;8.280;2023-04-24T09:43:53;5.03;;;2.38;;
79638;SDS011;69114;49.108;8.280;2023-04-24T09:46:20;3.60;;;2.40;;
79638;SDS011;69114;49.108;8.280;2023-04-24T09:48:47;6.43;;;2.70;;
79638;SDS011;69114;49.108;8.280;2023-04-24T09:51:12;4.28;;;3.30;;
79638;SDS011;69114;49.108;8.280;2023-04-24T09:53:38;6.13;;;2.97;;
79638;SDS011;69114;49.108;8.280;2023-04-24T09:56:08;3.85;;;2.70;;
79638;SDS011;69114;49.108;8.280;2023-04-24T09:58:35;5.00;;;2.80;;
79638;SDS011;69114;49.108;8.280;2023-04-24T10:01:01;3.88;;;2.95;;
79638;SDS011;69114;49.108;8.280;2023-04-24T10:03:29;4.05;;;2.85;;
79638;SDS011;69114;49.108;8.280;2023-04-24T10:05:58;4.88;;;2.83;;
79638;SDS011;69114;49.108;8.280;2023-04-24T10:08:24;5.65;;;3.88;;
79638;SDS011;69114;49.108;8.280;2023-04-24T10:10:50;6.28;;;3.05;;
79638;SDS011;69114;49.108;8.280;2023-04-24T10:13:15;3.78;;;2.92;;
79638;SDS011;69114;49.108;8.280;2023-04-24T10:15:41;7.18;;;3.53;;
79638;SDS011;69114;49.108;8.280;2023-04-24T10:18:07;3.53;;;3.08;;
79638;SDS011;69114;49.108;8.280;2023-04-24T10:20:34;5.82;;;3.13;;
79638;SDS011;69114;49.108;8.280;2023-04-24T10:23:00;4.78;;;2.85;;
79638;SDS011;69114;49.108;8.280;2023-04-24T10:25:27;3.90;;;3.22;;
79638;SDS011;69114;49.108;8.280;2023-04-24T10:27:54;4.25;;;3.25;;
79638;SDS011;69114;49.108;8.280;2023-04-24T10:30:24;5.55;;;3.38;;
79638;SDS011;69114;49.108;8.280;2023-04-24T10:32:52;5.25;;;3.35;;
79638;SDS011;69114;49.108;8.280;2023-04-24T10:35:17;4.05;;;3.15;;
79638;SDS011;69114;49.108;8.280;2023-04-24T10:38:03;4.10;;;3.33;;
79638;SDS011;69114;49.108;8.280;2023-04-24T10:40:34;5.07;;;3.30;;
79638;SDS011;69114;49.108;8.280;2023-04-24T10:43:03;5.40;;;3.70;;
79638;SDS011;69114;49.108;8.280;2023-04-24T10:45:35;4.30;;;3.25;;
79638;SDS011;69114;49.108;8.280;2023-04-24T10:48:05;4.93;;;3.13;;
79638;SDS011;69114;49.108;8.280;2023-04-24T10:50:42;5.68;;;3.25;;
79638;SDS011;69114;49.108;8.280;2023-04-24T10:53:16;7.18;;;4.45;;
79638;SDS011;69114;49.108;8.280;2023-04-24T10:55:50;4.47;;;2.80;;
79638;SDS011;69114;49.108;8.280;2023-04-24T10:58:21;4.18;;;3.03;;
79638;SDS011;69114;49.108;8.280;2023-04-24T11:00:55;4.32;;;3.13;;
79638;SDS011;69114;49.108;8.280;2023-04-24T11:03:25;3.67;;;2.88;;
79638;SDS011;69114;49.108;8.280;2023-04-24T11:05:55;6.07;;;2.83;;
79638;SDS011;69114;49.108;8.280;2023-04-24T11:08:21;4.95;;;3.05;;
79638;SDS011;69114;49.108;8.280;2023-04-24T11:10:56;3.70;;;2.58;;
79638;SDS011;69114;49.108;8.280;2023-04-24T11:14:01;3.55;;;2.47;;
79638;SDS011;69114;49.108;8.280;2023-04-24T11:16:34;4.75;;;3.30;;
79638;SDS011;69114;49.108;8.280;2023-04-24T11:19:05;5.97;;;3.38;;
79638;SDS011;69114;49.108;8.280;2023-04-24T11:27:05;4.80;;;3.03;;
79638;SDS011;69114;49.108;8.280;2023-04-24T11:29:49;5.78;;;3.70;;
79638;SDS011;69114;49.108;8.280;2023-04-24T11:40:07;4.93;;;3.40;;
79638;SDS011;69114;49.108;8.280;2023-04-24T11:42:35;5.00;;;2.83;;
79638;SDS011;69114;49.108;8.280;2023-04-24T11:45:02;4.38;;;3.00;;
79638;SDS011;69114;49.108;8.280;2023-04-24T11:47:32;3.58;;;2.72;;
79638;SDS011;69114;49.108;8.280;2023-04-24T11:49:58;5.43;;;3.30;;
79638;SDS011;69114;49.108;8.280;2023-04-24T11:52:25;3.53;;;3.10;;
79638;SDS011;69114;49.108;8.280;2023-04-24T11:54:54;3.97;;;3.00;;
79638;SDS011;69114;49.108;8.280;2023-04-24T11:57:20;4.90;;;3.10;;
79638;SDS011;69114;49.108;8.280;2023-04-24T11:59:46;5.07;;;3.20;;
79638;SDS011;69114;49.108;8.280;2023-04-24T12:02:24;4.22;;;3.15;;
79638;SDS011;69114;49.108;8.280;2023-04-24T12:04:51;3.17;;;2.58;;
79638;SDS011;69114;49.108;8.280;2023-04-24T12:07:17;5.80;;;3.15;;
79638;SDS011;69114;49.108;8.280;2023-04-24T12:09:43;4.10;;;2.70;;
79638;SDS011;69114;49.108;8.280;2023-04-24T12:12:13;3.95;;;2.90;;
79638;SDS011;69114;49.108;8.280;2023-04-24T12:14:48;4.18;;;3.05;;
79638;SDS011;69114;49.108;8.280;2023-04-24T12:19:46;6.97;;;3.20;;
79638;SDS011;69114;49.108;8.280;2023-04-24T12:27:22;4.13;;;3.03;;
79638;SDS011;69114;49.108;8.280;2023-04-24T12:29:57;5.28;;;3.33;;
79638;SDS011;69114;49.108;8.280;2023-04-24T12:32:23;6.72;;;2.97;;
79638;SDS011;69114;49.108;8.280;2023-04-24T12:34:50;3.65;;;2.83;;
79638;SDS011;69114;49.108;8.280;2023-04-24T12:37:17;5.30;;;3.58;;
79638;SDS011;69114;49.108;8.280;2023-04-24T12:39:59;3.75;;;2.65;;
79638;SDS011;69114;49.108;8.280;2023-04-24T12:42:25;6.45;;;3.30;;
79638;SDS011;69114;49.108;8.280;2023-04-24T12:44:55;4.90;;;3.05;;
79638;SDS011;69114;49.108;8.280;2023-04-24T12:47:22;3.78;;;3.13;;
79638;SDS011;69114;49.108;8.280;2023-04-24T12:49:48;3.55;;;2.78;;
79638;SDS011;69114;49.108;8.280;2023-04-24T12:52:15;4.47;;;3.13;;
79638;SDS011;69114;49.108;8.280;2023-04-24T12:54:42;6.55;;;3.30;;
79638;SDS011;69114;49.108;8.280;2023-04-24T12:57:07;5.90;;;3.22;;
79638;SDS011;69114;49.108;8.280;2023-04-24T12:59:33;6.87;;;3.40;;
79638;SDS011;69114;49.108;8.280;2023-04-24T13:01:58;4.47;;;3.40;;
79638;SDS011;69114;49.108;8.280;2023-04-24T13:04:23;5.00;;;3.47;;
79638;SDS011;69114;49.108;8.280;2023-04-24T13:06:49;5.28;;;3.00;;
79638;SDS011;69114;49.108;8.280;2023-04-24T13:09:15;4.15;;;2.97;;
79638;SDS011;69114;49.108;8.280;2023-04-24T13:11:43;4.18;;;2.95;;
79638;SDS011;69114;49.108;8.280;2023-04-24T13:14:08;4.22;;;2.80;;
79638;SDS011;69114;49.108;8.280;2023-04-24T13:16:34;5.67;;;3.20;;
79638;SDS011;69114;49.108;8.280;2023-04-24T13:18:59;3.40;;;2.58;;
79638;SDS011;69114;49.108;8.280;2023-04-24T13:21:24;2.63;;;2.10;;
79638;SDS011;69114;49.108;8.280;2023-04-24T13:23:51;3.03;;;2.38;;
79638;SDS011;69114;49.108;8.280;2023-04-24T13:26:16;3.80;;;3.08;;
79638;SDS011;69114;49.108;8.280;2023-04-24T13:28:42;5.35;;;2.53;;
79638;SDS011;69114;49.108;8.280;2023-04-24T13:31:07;4.25;;;3.05;;
79638;SDS011;69114;49.108;8.280;2023-04-24T13:33:32;5.10;;;3.08;;
79638;SDS011;69114;49.108;8.280;2023-04-24T13:35:58;3.55;;;2.60;;
79638;SDS011;69114;49.108;8.280;2023-04-24T13:38:23;3.33;;;2.70;;
79638;SDS011;69114;49.108;8.280;2023-04-24T13:40:48;4.88;;;2.65;;
79638;SDS011;69114;49.108;8.280;2023-04-24T13:43:14;5.10;;;2.95;;
79638;SDS011;69114;49.108;8.280;2023-04-24T13:45:40;4.55;;;3.13;;
79638;SDS011;69114;49.108;8.280;2023-04-24T13:48:05;4.85;;;2.90;;
79638;SDS011;69114;49.108;8.280;2023-04-24T13:50:31;4.15;;;3.15;;
79638;SDS011;69114;49.108;8.280;2023-04-24T13:52:56;4.35;;;3.22;;
79638;SDS011;69114;49.108;8.280;2023-04-24T13:55:24;4.47;;;2.90;;
79638;SDS011;69114;49.108;8.280;2023-04-24T13:57:50;4.75;;;2.92;;
79638;SDS011;69114;49.108;8.280;2023-04-24T14:00:17;4.03;;;3.10;;
79638;SDS011;69114;49.108;8.280;2023-04-24T14:02:42;4.13;;;3.00;;
79638;SDS011;69114;49.108;8.280;2023-04-24T14:05:08;5.33;;;3.10;;
79638;SDS011;69114;49.108;8.280;2023-04-24T14:07:35;4.20;;;2.58;;
79638;SDS011;69114;49.108;8.280;2023-04-24T14:10:01;3.65;;;2.88;;
79638;SDS011;69114;49.108;8.280;2023-04-24T14:12:26;4.75;;;3.03;;
79638;SDS011;69114;49.108;8.280;2023-04-24T14:14:52;6.57;;;3.08;;
79638;SDS011;69114;49.108;8.280;2023-04-24T14:17:17;3.67;;;2.80;;
79638;SDS011;69114;49.108;8.280;2023-04-24T14:19:42;3.40;;;2.83;;
79638;SDS011;69114;49.108;8.280;2023-04-24T14:22:08;4.90;;;2.80;;
79638;SDS011;69114;49.108;8.280;2023-04-24T14:24:33;3.67;;;2.75;;
79638;SDS011;69114;49.108;8.280;2023-04-24T14:26:58;4.18;;;3.22;;
79638;SDS011;69114;49.108;8.280;2023-04-24T14:29:25;3.05;;;2.40;;
79638;SDS011;69114;49.108;8.280;2023-04-24T14:31:50;4.63;;;2.67;;
79638;SDS011;69114;49.108;8.280;2023-04-24T14:34:16;4.45;;;3.00;;
79638;SDS011;69114;49.108;8.280;2023-04-24T14:36:41;5.55;;;3.40;;
79638;SDS011;69114;49.108;8.280;2023-04-24T14:39:07;3.90;;;2.70;;
79638;SDS011;69114;49.108;8.280;2023-04-24T14:41:32;5.60;;;2.67;;
79638;SDS011;69114;49.108;8.280;2023-04-24T14:44:00;4.45;;;2.67;;
79638;SDS011;69114;49.108;8.280;2023-04-24T14:46:29;4.57;;;2.67;;
79638;SDS011;69114;49.108;8.280;2023-04-24T14:48:55;5.30;;;3.00;;
79638;SDS011;69114;49.108;8.280;2023-04-24T14:51:23;5.45;;;3.10;;
79638;SDS011;69114;49.108;8.280;2023-04-24T14:53:50;4.18;;;2.72;;
79638;SDS011;69114;49.108;8.280;2023-04-24T14:56:15;3.63;;;3.00;;
79638;SDS011;69114;49.108;8.280;2023-04-24T14:58:40;5.53;;;2.95;;
79638;SDS011;69114;49.108;8.280;2023-04-24T15:01:06;5.95;;;3.15;;
79638;SDS011;69114;49.108;8.280;2023-04-24T15:03:31;3.25;;;2.40;;
79638;SDS011;69114;49.108;8.280;2023-04-24T15:05:57;5.07;;;2.90;;